Time;durP1;ratioP1;P1;durP2;ratioP2;P2;SDS_P1;SDS_P2;PMS_P1;PMS_P2;Temp;Humidity;BMP_temperature;BMP_pressure;BME280_temperature;BME280_humidity;BME280_pressure;Samples;Min_cycle;Max_cycle;Signal;HPM_P1;HPM_P2
2022/10/21 00:00:16;;;;;;;;;;;;;;;;;;1047844;28;2541;-57
2022/10/21 00:01:06;;;;;;;;;;;;;;;;;;1048948;28;2721;-54
2022/10/21 00:01:41;;;;;;;;;;;;;;;;;;1047810;28;2456;-57
2022/10/21 00:02:11;;;;;;;;;;;;;;;;;;1048702;28;2724;-55
2022/10/21 00:02:42;;;;;;;;;;;;;;;;;;1049391;28;2464;-57
2022/10/21 00:03:12;;;;;;;;;;;;;;;;;;1051041;28;2180;-55
2022/10/21 00:03:42;;;;;;;;;;;;;;;;;;1050790;28;2203;-52
2022/10/21 00:04:12;;;;;;;;;;;;;;;;;;1048430;28;2586;-58
2022/10/21 00:04:43;;;;;;;;;;;;;;;;;;1048083;28;2644;-56
2022/10/21 00:05:14;;;;;;;;;;;;;;;;;;1048737;28;3042;-55
2022/10/21 00:05:45;;;;;;;;;;;;;;;;;;1051033;28;2401;-58
2022/10/21 00:06:16;;;;;;;;;;;;;;;;;;1049507;28;2076;-57
2022/10/21 00:06:46;;;;;;;;;;;;;;;;;;1048915;28;3988;-56
2022/10/21 00:07:23;;;;;;;;;;;;;;;;;;1047802;28;2329;-57
2022/10/21 00:08:00;;;;;;;;;;;;;;;;;;1052035;28;2015;-57
2022/10/21 00:08:31;;;;;;;;;;;;;;;;;;1044537;28;2092;-55
2022/10/21 00:09:01;;;;;;;;;;;;;;;;;;1046201;28;2310;-56
2022/10/21 00:09:31;;;;;;;;;;;;;;;;;;1044027;28;2545;-55
2022/10/21 00:10:02;;;;;;;;;;;;;;;;;;1043728;28;2571;-55
2022/10/21 00:10:33;;;;;;;;;;;;;;;;;;1053879;28;2327;-52
2022/10/21 00:11:04;;;;;;;;;;;;;;;;;;1052717;28;2572;-56
2022/10/21 00:11:34;;;;;;;;;;;;;;;;;;1052664;28;2204;-55
2022/10/21 00:12:05;;;;;;;;;;;;;;;;;;1053636;28;2174;-55
2022/10/21 00:12:35;;;;;;;;;;;;;;;;;;1052677;28;2093;-54
2022/10/21 00:13:06;;;;;;;;;;;;;;;;;;1052742;28;2103;-51
2022/10/21 00:13:38;;;;;;;;;;;;;;;;;;1053733;28;2449;-54
2022/10/21 00:14:08;;;;;;;;;;;;;;;;;;1054010;28;2187;-54
2022/10/21 00:14:39;;;;;;;;;;;;;;;;;;1051562;28;2579;-56
2022/10/21 00:15:10;;;;;;;;;;;;;;;;;;1053901;28;2790;-58
2022/10/21 00:15:41;;;;;;;;;;;;;;;;;;1052472;28;2442;-56
2022/10/21 00:16:13;;;;;;;;;;;;;;;;;;1053516;28;2437;-54
2022/10/21 00:16:44;;;;;;;;;;;;;;;;;;1052400;28;2342;-55
2022/10/21 00:17:14;;;;;;;;;;;;;;;;;;1052054;28;2734;-54
2022/10/21 00:17:51;;;;;;;;;;;;;;;;;;1055585;28;2277;-59
2022/10/21 00:18:21;;;;;;;;;;;;;;;;;;1049411;28;2706;-56
2022/10/21 00:18:51;;;;;;;;;;;;;;;;;;1049273;28;2707;-55
2022/10/21 00:19:22;;;;;;;;;;;;;;;;;;1049949;28;1863;-53
2022/10/21 00:19:52;;;;;;;;;;;;;;;;;;1049595;28;2667;-54
2022/10/21 00:20:22;;;;;;;;;;;;;;;;;;1052387;28;2412;-56
2022/10/21 00:20:52;;;;;;;;;;;;;;;;;;1052866;28;2784;-53
2022/10/21 00:21:23;;;;;;;;;;;;;;;;;;1053173;28;3015;-58
2022/10/21 00:21:53;;;;;;;;;;;;;;;;;;1054545;28;2143;-50
2022/10/21 00:22:23;;;;;;;;;;;;;;;;;;1052094;28;2914;-57
2022/10/21 00:22:53;;;;;;;;;;;;;;;;;;1052079;28;2378;-54
2022/10/21 00:23:24;;;;;;;;;;;;;;;;;;1053166;28;2666;-53
2022/10/21 00:23:54;;;;;;;;;;;;;;;;;;1053223;28;2080;-52
2022/10/21 00:24:24;;;;;;;;;;;;;;;;;;1054906;28;2950;-52
2022/10/21 00:24:55;;;;;;;;;;;;;;;;;;1053934;28;2284;-55
2022/10/21 00:25:26;;;;;;;;;;;;;;;;;;1043160;28;1842;-54
2022/10/21 00:25:56;;;;;;;;;;;;;;;;;;1042747;28;2557;-55
2022/10/21 00:26:27;;;;;;;;;;;;;;;;;;1042671;28;2765;-57
2022/10/21 00:26:57;;;;;;;;;;;;;;;;;;1042234;28;2155;-55
2022/10/21 00:27:28;;;;;;;;;;;;;;;;;;1048181;28;2636;-58
2022/10/21 00:27:58;;;;;;;;;;;;;;;;;;1050864;28;2029;-57
2022/10/21 00:28:29;;;;;;;;;;;;;;;;;;1054747;28;2448;-52
2022/10/21 00:29:00;;;;;;;;;;;;;;;;;;1054635;28;2158;-57
2022/10/21 00:29:30;;;;;;;;;;;;;;;;;;1044028;28;2227;-54
2022/10/21 00:30:02;;;;;;;;;;;;;;;;;;1041124;28;2734;-55
2022/10/21 00:30:33;;;;;;;;;;;;;;;;;;1040028;28;2502;-53
2022/10/21 00:31:08;;;;;;;;;;;;;;;;;;1042727;28;2590;-57
2022/10/21 00:31:39;;;;;;;;;;;;;;;;;;1049370;28;2229;-55
2022/10/21 00:32:09;;;;;;;;;;;;;;;;;;1042713;28;2502;-57
2022/10/21 00:32:39;;;;;;;;;;;;;;;;;;1043035;28;2705;-56
2022/10/21 00:33:10;;;;;;;;;;;;;;;;;;1043725;28;1669;-53
2022/10/21 00:33:41;;;;;;;;;;;;;;;;;;1045581;28;2142;-56
2022/10/21 00:34:11;;;;;;;;;;;;;;;;;;1051513;28;2673;-58
2022/10/21 00:34:42;;;;;;;;;;;;;;;;;;1052890;28;2747;-56
2022/10/21 00:35:13;;;;;;;;;;;;;;;;;;1052001;28;2679;-55
2022/10/21 00:35:48;;;;;;;;;;;;;;;;;;1052523;28;1992;-54
2022/10/21 00:36:18;;;;;;;;;;;;;;;;;;1052432;28;2465;-54
2022/10/21 00:36:49;;;;;;;;;;;;;;;;;;1050843;28;2483;-58
2022/10/21 00:37:19;;;;;;;;;;;;;;;;;;1052952;28;2169;-56
2022/10/21 00:37:50;;;;;;;;;;;;;;;;;;1051262;28;2040;-52
2022/10/21 00:38:20;;;;;;;;;;;;;;;;;;1053555;28;2816;-55
2022/10/21 00:38:51;;;;;;;;;;;;;;;;;;1052719;28;2649;-53
2022/10/21 00:39:21;;;;;;;;;;;;;;;;;;1054568;28;2765;-59
2022/10/21 00:39:51;;;;;;;;;;;;;;;;;;1048310;28;2012;-56
2022/10/21 00:40:22;;;;;;;;;;;;;;;;;;1045565;28;2335;-55
2022/10/21 00:40:52;;;;;;;;;;;;;;;;;;1044757;28;2268;-53
2022/10/21 00:41:23;;;;;;;;;;;;;;;;;;1044304;28;2299;-54
2022/10/21 00:41:53;;;;;;;;;;;;;;;;;;1047472;28;2015;-55
2022/10/21 00:42:29;;;;;;;;;;;;;;;;;;1050939;28;2168;-57
2022/10/21 00:43:00;;;;;;;;;;;;;;;;;;1049919;28;2533;-56
2022/10/21 00:43:30;;;;;;;;;;;;;;;;;;1050312;28;1743;-56
2022/10/21 00:44:02;;;;;;;;;;;;;;;;;;1050811;28;2216;-56
2022/10/21 00:44:34;;;;;;;;;;;;;;;;;;1052664;28;2179;-52
2022/10/21 00:45:04;;;;;;;;;;;;;;;;;;1051854;28;1651;-52
2022/10/21 00:45:35;;;;;;;;;;;;;;;;;;1050684;28;2025;-55
2022/10/21 00:46:06;;;;;;;;;;;;;;;;;;1050691;28;1918;-54
2022/10/21 00:46:42;;;;;;;;;;;;;;;;;;1048826;28;1962;-53
2022/10/21 00:47:17;;;;;;;;;;;;;;;;;;1050293;28;2599;-55
2022/10/21 00:47:50;;;;;;;;;;;;;;;;;;1048319;28;2202;-53
2022/10/21 00:48:20;;;;;;;;;;;;;;;;;;1041222;28;2024;-59
2022/10/21 00:48:56;;;;;;;;;;;;;;;;;;1041527;28;2150;-58
2022/10/21 00:49:26;;;;;;;;;;;;;;;;;;1045028;28;1650;-55
2022/10/21 00:50:00;;;;;;;;;;;;;;;;;;1042500;28;2229;-55
2022/10/21 00:50:33;;;;;;;;;;;;;;;;;;1047717;28;2070;-56
2022/10/21 00:51:06;;;;;;;;;;;;;;;;;;1047250;28;2183;-56
2022/10/21 00:51:36;;;;;;;;;;;;;;;;;;1052384;28;1942;-55
2022/10/21 00:52:09;;;;;;;;;;;;;;;;;;1048043;28;2206;-53
2022/10/21 00:52:39;;;;;;;;;;;;;;;;;;1050906;28;1630;-56
2022/10/21 00:53:12;;;;;;;;;;;;;;;;;;1050265;28;2127;-57
2022/10/21 00:53:44;;;;;;;;;;;;;;;;;;1048858;28;2133;-55
2022/10/21 00:54:17;;;;;;;;;;;;;;;;;;1052693;28;2123;-56
2022/10/21 00:54:54;;;;;;;;;;;;;;;;;;1052337;28;2078;-56
2022/10/21 00:55:26;;;;;;;;;;;;;;;;;;1051808;28;3171;-56
2022/10/21 00:56:00;;;;;;;;;;;;;;;;;;1054260;28;2344;-54
2022/10/21 00:56:32;;;;;;;;;;;;;;;;;;1053207;28;2282;-56
2022/10/21 00:57:03;;;;;;;;;;;;;;;;;;1047103;28;2192;-58
2022/10/21 00:57:34;;;;;;;;;;;;;;;;;;1048888;28;2060;-53
2022/10/21 00:58:06;;;;;;;;;;;;;;;;;;1047523;28;2158;-57
2022/10/21 00:58:36;;;;;;;;;;;;;;;;;;1049936;28;2115;-56
2022/10/21 00:59:07;;;;;;;;;;;;;;;;;;1048738;28;2198;-53
2022/10/21 00:59:43;;;;;;;;;;;;;;;;;;1049604;28;2141;-57
2022/10/21 01:00:13;;;;;;;;;;;;;;;;;;1049281;28;2766;-55
2022/10/21 01:00:44;;;;;;;;;;;;;;;;;;1048685;28;2896;-55
2022/10/21 01:01:14;;;;;;;;;;;;;;;;;;1049211;28;2271;-56
2022/10/21 01:01:44;;;;;;;;;;;;;;;;;;1048887;28;2090;-59
2022/10/21 01:02:15;;;;;;;;;;;;;;;;;;1053306;28;2584;-56
2022/10/21 01:02:45;;;;;;;;;;;;;;;;;;1053302;28;2507;-59
2022/10/21 01:03:16;;;;;;;;;;;;;;;;;;1052971;28;2781;-55
2022/10/21 01:03:46;;;;;;;;;;;;;;;;;;1051929;28;2438;-57
2022/10/21 01:04:17;;;;;;;;;;;;;;;;;;1052798;28;1968;-55
2022/10/21 01:04:51;;;;;;;;;;;;;;;;;;1053504;28;1474;-56
2022/10/21 01:05:21;;;;;;;;;;;;;;;;;;1052061;28;2263;-53
2022/10/21 01:05:53;;;;;;;;;;;;;;;;;;1052843;28;2677;-55
2022/10/21 01:06:24;;;;;;;;;;;;;;;;;;1054783;28;2169;-56
2022/10/21 01:06:55;;;;;;;;;;;;;;;;;;1048094;28;2104;-53
2022/10/21 01:07:32;;;;;;;;;;;;;;;;;;1045788;28;2014;-56
2022/10/21 01:08:09;;;;;;;;;;;;;;;;;;1040828;28;2371;-54
2022/10/21 01:08:47;;;;;;;;;;;;;;;;;;1042735;28;2669;-56
2022/10/21 01:09:19;;;;;;;;;;;;;;;;;;1043331;28;2394;-57
2022/10/21 01:09:50;;;;;;;;;;;;;;;;;;1043419;28;2582;-59
2022/10/21 01:10:20;;;;;;;;;;;;;;;;;;1044106;28;2236;-57
2022/10/21 01:10:50;;;;;;;;;;;;;;;;;;1045017;28;3536;-57
2022/10/21 01:11:21;;;;;;;;;;;;;;;;;;1045741;28;2581;-56
2022/10/21 01:11:52;;;;;;;;;;;;;;;;;;1044754;28;2376;-54
2022/10/21 01:12:33;;;;;;;;;;;;;;;;;;1045682;28;2025;-57
2022/10/21 01:13:20;;;;;;;;;;;;;;;;;;1046767;28;2039;-56
2022/10/21 01:14:03;;;;;;;;;;;;;;;;;;1043480;28;2177;-56
2022/10/21 01:14:43;;;;;;;;;;;;;;;;;;1044870;28;2461;-54
2022/10/21 01:15:32;;;;;;;;;;;;;;;;;;1042570;28;2745;-56
2022/10/21 01:16:08;;;;;;;;;;;;;;;;;;1043406;28;2934;-56
2022/10/21 01:16:49;;;;;;;;;;;;;;;;;;1039110;28;2445;-55
2022/10/21 01:17:52;;;;;;;;;;;;;;;;;;1041208;28;2495;-55
2022/10/21 01:18:29;;;;;;;;;;;;;;;;;;1025474;28;2346;-54
2022/10/21 01:19:04;;;;;;;;;;;;;;;;;;1026146;28;2956;-55
2022/10/21 01:19:34;;;;;;;;;;;;;;;;;;1041861;28;2470;-55
2022/10/21 01:20:19;;;;;;;;;;;;;;;;;;1044161;28;2612;-55
2022/10/21 01:20:49;;;;;;;;;;;;;;;;;;1047156;28;1642;-53
2022/10/21 01:21:27;;;;;;;;;;;;;;;;;;1043579;28;3851;-56
2022/10/21 01:22:22;;;;;;;;;;;;;;;;;;1045021;28;2495;-55
2022/10/21 01:22:58;;;;;;;;;;;;;;;;;;1043255;28;2643;-56
2022/10/21 01:23:47;;;;;;;;;;;;;;;;;;1045995;28;2729;-55
2022/10/21 01:24:25;;;;;;;;;;;;;;;;;;1042879;28;2292;-53
2022/10/21 01:25:10;;;;;;;;;;;;;;;;;;1043373;28;2565;-56
2022/10/21 01:25:41;;;;;;;;;;;;;;;;;;1043822;28;2401;-57
2022/10/21 01:26:18;;;;;;;;;;;;;;;;;;1043199;28;3074;-55
2022/10/21 01:26:54;;;;;;;;;;;;;;;;;;1043333;28;2655;-54
2022/10/21 01:27:44;;;;;;;;;;;;;;;;;;1043085;28;1376;-52
2022/10/21 01:28:34;;;;;;;;;;;;;;;;;;1045174;28;2155;-56
2022/10/21 01:29:22;;;;;;;;;;;;;;;;;;1043989;28;2506;-54
2022/10/21 01:30:08;;;;;;;;;;;;;;;;;;1043654;28;2668;-55
2022/10/21 01:30:40;;;;;;;;;;;;;;;;;;1046658;28;2423;-56
2022/10/21 01:31:19;;;;;;;;;;;;;;;;;;1042533;28;2699;-56
2022/10/21 01:32:12;;;;;;;;;;;;;;;;;;1044239;28;2111;-55
2022/10/21 01:32:46;;;;;;;;;;;;;;;;;;1045157;28;2326;-57
2022/10/21 01:33:35;;;;;;;;;;;;;;;;;;1042763;28;2624;-53
2022/10/21 01:34:18;;;;;;;;;;;;;;;;;;1042346;28;2178;-56
2022/10/21 01:35:01;;;;;;;;;;;;;;;;;;1043665;28;3007;-53
2022/10/21 01:35:35;;;;;;;;;;;;;;;;;;1045895;28;2280;-58
2022/10/21 01:36:32;;;;;;;;;;;;;;;;;;1043352;28;2000;-53
2022/10/21 01:37:09;;;;;;;;;;;;;;;;;;1044869;28;2173;-54
2022/10/21 01:38:11;;;;;;;;;;;;;;;;;;1046629;28;2066;-55
2022/10/21 01:38:51;;;;;;;;;;;;;;;;;;1034560;28;2459;-58
2022/10/21 01:39:31;;;;;;;;;;;;;;;;;;1033341;28;3040;-56
2022/10/21 01:40:29;;;;;;;;;;;;;;;;;;1043932;28;2134;-56
2022/10/21 01:41:03;;;;;;;;;;;;;;;;;;1032244;28;2963;-56
2022/10/21 01:41:36;;;;;;;;;;;;;;;;;;1032557;28;2395;-56
2022/10/21 01:42:13;;;;;;;;;;;;;;;;;;1043024;28;3436;-56
2022/10/21 01:42:49;;;;;;;;;;;;;;;;;;1044181;28;3724;-52
2022/10/21 01:43:26;;;;;;;;;;;;;;;;;;1044364;28;2473;-57
2022/10/21 01:44:01;;;;;;;;;;;;;;;;;;1043619;28;2097;-57
2022/10/21 01:44:40;;;;;;;;;;;;;;;;;;1044051;28;3276;-58
2022/10/21 01:45:18;;;;;;;;;;;;;;;;;;1043239;28;2180;-55
2022/10/21 01:45:51;;;;;;;;;;;;;;;;;;1040397;28;2268;-54
2022/10/21 01:46:25;;;;;;;;;;;;;;;;;;1041624;28;2162;-55
2022/10/21 01:46:57;;;;;;;;;;;;;;;;;;1040899;28;2212;-57
2022/10/21 01:47:46;;;;;;;;;;;;;;;;;;1044769;28;2213;-54
2022/10/21 01:48:23;;;;;;;;;;;;;;;;;;1044893;28;2478;-54
2022/10/21 01:48:56;;;;;;;;;;;;;;;;;;1045365;28;2353;-56
2022/10/21 01:49:38;;;;;;;;;;;;;;;;;;1042298;28;2402;-55
2022/10/21 01:50:15;;;;;;;;;;;;;;;;;;1044828;28;2439;-58
2022/10/21 01:50:48;;;;;;;;;;;;;;;;;;1042194;28;1624;-56
2022/10/21 01:51:18;;;;;;;;;;;;;;;;;;1044247;28;2647;-54
2022/10/21 01:51:50;;;;;;;;;;;;;;;;;;1047201;28;1832;-58
2022/10/21 01:52:21;;;;;;;;;;;;;;;;;;1043329;28;2210;-57
2022/10/21 01:52:56;;;;;;;;;;;;;;;;;;1043265;28;1655;-55
2022/10/21 01:53:33;;;;;;;;;;;;;;;;;;1044902;28;2172;-55
2022/10/21 01:54:06;;;;;;;;;;;;;;;;;;1046222;28;2005;-56
2022/10/21 01:54:42;;;;;;;;;;;;;;;;;;1045037;28;2165;-56
2022/10/21 01:55:16;;;;;;;;;;;;;;;;;;1038147;28;2291;-56
2022/10/21 01:55:48;;;;;;;;;;;;;;;;;;1042367;28;2539;-55
2022/10/21 01:56:19;;;;;;;;;;;;;;;;;;1041818;28;2465;-55
2022/10/21 01:56:51;;;;;;;;;;;;;;;;;;1037356;28;2304;-57
2022/10/21 01:57:25;;;;;;;;;;;;;;;;;;1038741;28;2340;-53
2022/10/21 01:57:58;;;;;;;;;;;;;;;;;;1036325;28;2122;-51
2022/10/21 01:58:30;;;;;;;;;;;;;;;;;;1039176;28;2009;-54
2022/10/21 01:59:01;;;;;;;;;;;;;;;;;;1042757;28;2390;-55
2022/10/21 01:59:32;;;;;;;;;;;;;;;;;;1047366;28;2515;-53
2022/10/21 02:00:03;;;;;;;;;;;;;;;;;;1047293;28;3591;-58
2022/10/21 02:00:35;;;;;;;;;;;;;;;;;;1047146;28;2360;-54
2022/10/21 02:01:07;;;;;;;;;;;;;;;;;;1044689;28;2182;-56
2022/10/21 02:01:38;;;;;;;;;;;;;;;;;;1045629;28;2097;-55
2022/10/21 02:02:08;;;;;;;;;;;;;;;;;;1042269;28;2759;-57
2022/10/21 02:02:42;;;;;;;;;;;;;;;;;;1043309;28;2602;-51
2022/10/21 02:03:15;;;;;;;;;;;;;;;;;;1042739;28;1683;-57
2022/10/21 02:03:46;;;;;;;;;;;;;;;;;;1046655;28;2656;-55
2022/10/21 02:04:18;;;;;;;;;;;;;;;;;;1044152;28;2239;-56
2022/10/21 02:04:49;;;;;;;;;;;;;;;;;;1043531;28;2105;-55
2022/10/21 02:05:26;;;;;;;;;;;;;;;;;;1040727;28;3452;-56
2022/10/21 02:05:57;;;;;;;;;;;;;;;;;;1038507;28;1269;-56
2022/10/21 02:06:27;;;;;;;;;;;;;;;;;;1039961;28;2073;-55
2022/10/21 02:06:57;;;;;;;;;;;;;;;;;;1043169;28;1966;-57
2022/10/21 02:07:28;;;;;;;;;;;;;;;;;;1045869;28;2467;-53
2022/10/21 02:07:58;;;;;;;;;;;;;;;;;;1053472;28;2066;-54
2022/10/21 02:08:48;;;;;;;;;;;;;;;;;;1052231;28;2116;-57
2022/10/21 02:09:18;;;;;;;;;;;;;;;;;;1053219;28;2562;-52
2022/10/21 02:09:49;;;;;;;;;;;;;;;;;;1048283;28;2135;-56
2022/10/21 02:10:20;;;;;;;;;;;;;;;;;;1049046;28;2572;-54
2022/10/21 02:10:53;;;;;;;;;;;;;;;;;;1044568;28;2604;-56
2022/10/21 02:11:24;;;;;;;;;;;;;;;;;;1037783;28;2104;-53
2022/10/21 02:11:55;;;;;;;;;;;;;;;;;;1042184;28;2076;-52
2022/10/21 02:12:27;;;;;;;;;;;;;;;;;;1043332;28;2007;-55
2022/10/21 02:13:05;;;;;;;;;;;;;;;;;;1047696;28;2281;-56
2022/10/21 02:13:42;;;;;;;;;;;;;;;;;;1044051;28;1787;-52
2022/10/21 02:14:14;;;;;;;;;;;;;;;;;;1044895;28;2300;-55
2022/10/21 02:14:46;;;;;;;;;;;;;;;;;;1042309;28;2189;-57
2022/10/21 02:15:17;;;;;;;;;;;;;;;;;;1046717;28;2857;-55
2022/10/21 02:15:49;;;;;;;;;;;;;;;;;;1053360;28;2111;-58
2022/10/21 02:16:21;;;;;;;;;;;;;;;;;;1049250;28;2129;-53
2022/10/21 02:16:51;;;;;;;;;;;;;;;;;;1047856;28;2111;-57
2022/10/21 02:17:22;;;;;;;;;;;;;;;;;;1048972;28;2022;-57
2022/10/21 02:17:55;;;;;;;;;;;;;;;;;;1046661;28;2702;-57
2022/10/21 02:18:26;;;;;;;;;;;;;;;;;;1051846;28;2653;-54
2022/10/21 02:18:58;;;;;;;;;;;;;;;;;;1053437;28;1917;-56
2022/10/21 02:19:28;;;;;;;;;;;;;;;;;;1052512;28;2441;-57
2022/10/21 02:20:01;;;;;;;;;;;;;;;;;;1048181;28;2433;-57
2022/10/21 02:20:34;;;;;;;;;;;;;;;;;;1049694;28;2309;-53
2022/10/21 02:21:07;;;;;;;;;;;;;;;;;;1046045;28;2175;-56
2022/10/21 02:21:37;;;;;;;;;;;;;;;;;;1048695;28;2514;-55
2022/10/21 02:22:09;;;;;;;;;;;;;;;;;;1051432;28;2598;-54
2022/10/21 02:22:42;;;;;;;;;;;;;;;;;;1053293;28;2451;-53
2022/10/21 02:23:15;;;;;;;;;;;;;;;;;;1047248;28;1761;-55
2022/10/21 02:23:53;;;;;;;;;;;;;;;;;;1046115;28;3098;-55
2022/10/21 02:24:29;;;;;;;;;;;;;;;;;;1045609;28;2576;-52
2022/10/21 02:25:06;;;;;;;;;;;;;;;;;;1050436;28;2237;-55
2022/10/21 02:25:38;;;;;;;;;;;;;;;;;;1043724;28;1991;-53
2022/10/21 02:26:09;;;;;;;;;;;;;;;;;;1044291;28;2411;-55
2022/10/21 02:26:40;;;;;;;;;;;;;;;;;;1043130;28;2345;-58
2022/10/21 02:27:10;;;;;;;;;;;;;;;;;;1045499;28;2516;-59
2022/10/21 02:27:41;;;;;;;;;;;;;;;;;;1052600;28;2887;-56
2022/10/21 02:28:11;;;;;;;;;;;;;;;;;;1052003;28;2327;-57
2022/10/21 02:28:42;;;;;;;;;;;;;;;;;;1051164;28;2629;-54
2022/10/21 02:29:13;;;;;;;;;;;;;;;;;;1053169;28;2434;-55
2022/10/21 02:29:44;;;;;;;;;;;;;;;;;;1050833;28;2275;-55
2022/10/21 02:30:15;;;;;;;;;;;;;;;;;;1053134;28;2920;-55
2022/10/21 02:30:57;;;;;;;;;;;;;;;;;;1054697;28;1906;-56
2022/10/21 02:31:49;;;;;;;;;;;;;;;;;;1052369;28;2392;-54
2022/10/21 02:32:38;;;;;;;;;;;;;;;;;;1048101;28;2238;-57
2022/10/21 02:33:18;;;;;;;;;;;;;;;;;;1048488;28;2141;-53
2022/10/21 02:33:48;;;;;;;;;;;;;;;;;;1046079;28;2784;-54
2022/10/21 02:34:26;;;;;;;;;;;;;;;;;;1051967;28;2398;-54
2022/10/21 02:35:05;;;;;;;;;;;;;;;;;;1049064;28;2096;-56
2022/10/21 02:35:41;;;;;;;;;;;;;;;;;;1048278;28;2267;-55
2022/10/21 02:36:16;;;;;;;;;;;;;;;;;;1049450;28;1992;-57
2022/10/21 02:36:55;;;;;;;;;;;;;;;;;;1045359;28;2454;-56
2022/10/21 02:37:35;;;;;;;;;;;;;;;;;;1048454;28;2659;-57
2022/10/21 02:38:14;;;;;;;;;;;;;;;;;;1048147;28;2210;-56
2022/10/21 02:38:53;;;;;;;;;;;;;;;;;;1047883;28;1950;-56
2022/10/21 02:39:35;;;;;;;;;;;;;;;;;;1046544;28;1724;-53
2022/10/21 02:40:06;;;;;;;;;;;;;;;;;;1042578;28;2333;-58
2022/10/21 02:40:54;;;;;;;;;;;;;;;;;;1046414;28;2716;-55
2022/10/21 02:41:26;;;;;;;;;;;;;;;;;;1048847;28;2321;-54
2022/10/21 02:41:57;;;;;;;;;;;;;;;;;;1051375;28;2846;-58
2022/10/21 02:42:30;;;;;;;;;;;;;;;;;;1053712;28;2215;-53
2022/10/21 02:43:24;;;;;;;;;;;;;;;;;;1053636;28;2635;-56
2022/10/21 02:43:59;;;;;;;;;;;;;;;;;;1037900;28;2626;-57
2022/10/21 02:44:29;;;;;;;;;;;;;;;;;;1052696;28;2590;-56
2022/10/21 02:45:00;;;;;;;;;;;;;;;;;;1050944;28;2552;-55
2022/10/21 02:45:32;;;;;;;;;;;;;;;;;;1053350;28;2716;-55
2022/10/21 02:46:09;;;;;;;;;;;;;;;;;;1051778;28;2180;-55
2022/10/21 02:46:41;;;;;;;;;;;;;;;;;;1051672;28;2756;-55
2022/10/21 02:47:13;;;;;;;;;;;;;;;;;;1044677;28;2441;-54
2022/10/21 02:47:47;;;;;;;;;;;;;;;;;;1046443;28;2246;-58
2022/10/21 02:48:17;;;;;;;;;;;;;;;;;;1046938;28;1696;-56
2022/10/21 02:48:48;;;;;;;;;;;;;;;;;;1038242;28;2333;-55
2022/10/21 02:49:19;;;;;;;;;;;;;;;;;;1046576;28;1714;-55
2022/10/21 02:49:49;;;;;;;;;;;;;;;;;;1045205;28;2089;-56
2022/10/21 02:50:19;;;;;;;;;;;;;;;;;;1046513;28;2755;-56
2022/10/21 02:50:49;;;;;;;;;;;;;;;;;;1054000;28;1840;-52
2022/10/21 02:51:20;;;;;;;;;;;;;;;;;;1053126;28;2425;-52
2022/10/21 02:51:50;;;;;;;;;;;;;;;;;;1052540;28;2568;-54
2022/10/21 02:52:20;;;;;;;;;;;;;;;;;;1053326;28;2150;-58
2022/10/21 02:52:50;;;;;;;;;;;;;;;;;;1052104;28;2507;-52
2022/10/21 02:53:21;;;;;;;;;;;;;;;;;;1052160;28;2783;-52
2022/10/21 02:53:52;;;;;;;;;;;;;;;;;;1051374;28;1721;-54
2022/10/21 02:54:22;;;;;;;;;;;;;;;;;;1053932;28;2151;-54
2022/10/21 02:54:52;;;;;;;;;;;;;;;;;;1053168;28;2590;-55
2022/10/21 02:55:23;;;;;;;;;;;;;;;;;;1048075;28;2013;-58
2022/10/21 02:55:54;;;;;;;;;;;;;;;;;;1049081;28;3202;-57
2022/10/21 02:56:25;;;;;;;;;;;;;;;;;;1049179;28;2508;-56
2022/10/21 02:56:56;;;;;;;;;;;;;;;;;;1044710;28;2671;-55
2022/10/21 02:57:26;;;;;;;;;;;;;;;;;;1045994;28;2096;-52
2022/10/21 02:57:56;;;;;;;;;;;;;;;;;;1044579;28;2285;-56
2022/10/21 02:58:27;;;;;;;;;;;;;;;;;;1046934;28;2073;-56
2022/10/21 02:58:57;;;;;;;;;;;;;;;;;;1048039;28;2481;-58
2022/10/21 02:59:28;;;;;;;;;;;;;;;;;;1053543;28;2251;-57
2022/10/21 02:59:58;;;;;;;;;;;;;;;;;;1051750;28;2217;-57
2022/10/21 03:00:29;;;;;;;;;;;;;;;;;;1051711;28;1611;-54
2022/10/21 03:00:59;;;;;;;;;;;;;;;;;;1052226;28;2223;-56
2022/10/21 03:01:31;;;;;;;;;;;;;;;;;;1052281;28;1915;-54
2022/10/21 03:02:02;;;;;;;;;;;;;;;;;;1044136;28;2173;-57
2022/10/21 03:02:33;;;;;;;;;;;;;;;;;;1038162;28;1545;-51
2022/10/21 03:03:04;;;;;;;;;;;;;;;;;;1034003;28;2050;-53
2022/10/21 03:03:36;;;;;;;;;;;;;;;;;;1035611;28;2504;-57
2022/10/21 03:04:07;;;;;;;;;;;;;;;;;;1030624;28;3344;-54
2022/10/21 03:04:39;;;;;;;;;;;;;;;;;;1039142;28;2306;-59
2022/10/21 03:05:11;;;;;;;;;;;;;;;;;;1032616;28;2452;-55
2022/10/21 03:05:42;;;;;;;;;;;;;;;;;;1042344;28;2212;-57
2022/10/21 03:06:13;;;;;;;;;;;;;;;;;;1031910;28;2163;-57
2022/10/21 03:06:44;;;;;;;;;;;;;;;;;;1034195;28;1956;-58
2022/10/21 03:07:15;;;;;;;;;;;;;;;;;;1032650;28;2603;-58
2022/10/21 03:08:00;;;;;;;;;;;;;;;;;;1031857;28;2268;-57
2022/10/21 03:08:37;;;;;;;;;;;;;;;;;;1035972;28;2231;-54
2022/10/21 03:09:07;;;;;;;;;;;;;;;;;;1039833;28;1670;-53
2022/10/21 03:09:37;;;;;;;;;;;;;;;;;;1042433;28;2401;-58
2022/10/21 03:10:08;;;;;;;;;;;;;;;;;;1045846;28;2427;-56
2022/10/21 03:10:38;;;;;;;;;;;;;;;;;;1048541;28;2294;-55
2022/10/21 03:11:08;;;;;;;;;;;;;;;;;;1048597;28;2206;-56
2022/10/21 03:11:39;;;;;;;;;;;;;;;;;;1049539;28;2110;-55
2022/10/21 03:12:10;;;;;;;;;;;;;;;;;;1047213;28;1924;-58
2022/10/21 03:12:40;;;;;;;;;;;;;;;;;;1046657;28;2529;-57
2022/10/21 03:13:10;;;;;;;;;;;;;;;;;;1048379;28;2360;-53
2022/10/21 03:13:40;;;;;;;;;;;;;;;;;;1047468;28;2284;-57
2022/10/21 03:14:11;;;;;;;;;;;;;;;;;;1049554;28;2572;-58
2022/10/21 03:14:42;;;;;;;;;;;;;;;;;;1047377;28;2692;-54
2022/10/21 03:15:12;;;;;;;;;;;;;;;;;;1048414;28;2553;-52
2022/10/21 03:15:42;;;;;;;;;;;;;;;;;;1049993;28;2685;-55
2022/10/21 03:16:12;;;;;;;;;;;;;;;;;;1048546;28;2526;-54
2022/10/21 03:16:43;;;;;;;;;;;;;;;;;;1050273;28;2373;-54
2022/10/21 03:17:15;;;;;;;;;;;;;;;;;;1038302;28;2421;-54
2022/10/21 03:17:45;;;;;;;;;;;;;;;;;;1037150;28;2298;-56
2022/10/21 03:18:16;;;;;;;;;;;;;;;;;;1038577;28;2027;-58
2022/10/21 03:18:46;;;;;;;;;;;;;;;;;;1038676;28;1999;-56
2022/10/21 03:19:16;;;;;;;;;;;;;;;;;;1050874;28;2549;-58
2022/10/21 03:19:46;;;;;;;;;;;;;;;;;;1048789;28;2442;-54
2022/10/21 03:20:17;;;;;;;;;;;;;;;;;;1048824;28;3783;-57
2022/10/21 03:20:48;;;;;;;;;;;;;;;;;;1047545;28;2926;-54
2022/10/21 03:21:20;;;;;;;;;;;;;;;;;;1044764;28;2356;-55
2022/10/21 03:21:50;;;;;;;;;;;;;;;;;;1033152;28;2368;-56
2022/10/21 03:22:21;;;;;;;;;;;;;;;;;;1034517;28;2905;-55
2022/10/21 03:22:51;;;;;;;;;;;;;;;;;;1034801;28;3004;-54
2022/10/21 03:23:21;;;;;;;;;;;;;;;;;;1040107;28;2648;-56
2022/10/21 03:23:52;;;;;;;;;;;;;;;;;;1049082;28;3876;-53
2022/10/21 03:24:22;;;;;;;;;;;;;;;;;;1048423;28;2460;-54
2022/10/21 03:24:52;;;;;;;;;;;;;;;;;;1050905;28;2411;-54
2022/10/21 03:25:22;;;;;;;;;;;;;;;;;;1047442;28;3031;-58
2022/10/21 03:25:53;;;;;;;;;;;;;;;;;;1049637;28;2528;-56
2022/10/21 03:26:23;;;;;;;;;;;;;;;;;;1048207;28;2108;-58
2022/10/21 03:26:54;;;;;;;;;;;;;;;;;;1048105;28;2509;-55
2022/10/21 03:27:25;;;;;;;;;;;;;;;;;;1048021;28;2416;-54
2022/10/21 03:27:55;;;;;;;;;;;;;;;;;;1047602;28;3012;-58
2022/10/21 03:28:26;;;;;;;;;;;;;;;;;;1049379;28;2055;-56
2022/10/21 03:28:56;;;;;;;;;;;;;;;;;;1048474;28;2421;-52
2022/10/21 03:29:27;;;;;;;;;;;;;;;;;;1048676;28;2966;-59
2022/10/21 03:29:57;;;;;;;;;;;;;;;;;;1047889;28;2511;-55
2022/10/21 03:30:27;;;;;;;;;;;;;;;;;;1046991;28;2940;-57
2022/10/21 03:30:57;;;;;;;;;;;;;;;;;;1048361;28;2416;-55
2022/10/21 03:31:28;;;;;;;;;;;;;;;;;;1049372;28;2627;-57
2022/10/21 03:31:59;;;;;;;;;;;;;;;;;;1050017;28;2290;-58
2022/10/21 03:32:36;;;;;;;;;;;;;;;;;;1045391;28;2085;-56
2022/10/21 03:33:06;;;;;;;;;;;;;;;;;;1039669;28;2650;-56
2022/10/21 03:33:37;;;;;;;;;;;;;;;;;;1039223;28;2527;-57
2022/10/21 03:34:08;;;;;;;;;;;;;;;;;;1042621;28;2519;-56
2022/10/21 03:34:39;;;;;;;;;;;;;;;;;;1044105;28;2740;-54
2022/10/21 03:35:10;;;;;;;;;;;;;;;;;;1048163;28;2736;-54
2022/10/21 03:35:41;;;;;;;;;;;;;;;;;;1046719;28;3109;-56
2022/10/21 03:36:12;;;;;;;;;;;;;;;;;;1040834;28;2802;-54
2022/10/21 03:36:44;;;;;;;;;;;;;;;;;;1033447;28;2406;-51
2022/10/21 03:37:15;;;;;;;;;;;;;;;;;;1027890;28;2099;-54
2022/10/21 03:37:47;;;;;;;;;;;;;;;;;;1031969;28;2086;-56
2022/10/21 03:38:19;;;;;;;;;;;;;;;;;;1036631;28;2723;-54
2022/10/21 03:38:50;;;;;;;;;;;;;;;;;;1030965;28;2688;-55
2022/10/21 03:39:21;;;;;;;;;;;;;;;;;;1032764;28;2843;-54
2022/10/21 03:39:52;;;;;;;;;;;;;;;;;;1032720;28;2141;-55
2022/10/21 03:40:28;;;;;;;;;;;;;;;;;;1036965;28;2339;-55
2022/10/21 03:41:00;;;;;;;;;;;;;;;;;;1040759;28;2606;-56
2022/10/21 03:41:31;;;;;;;;;;;;;;;;;;1042090;28;2243;-55
2022/10/21 03:42:03;;;;;;;;;;;;;;;;;;1032940;28;2317;-58
2022/10/21 03:42:33;;;;;;;;;;;;;;;;;;1034559;28;2654;-55
2022/10/21 03:43:04;;;;;;;;;;;;;;;;;;1038509;28;2469;-53
2022/10/21 03:43:34;;;;;;;;;;;;;;;;;;1043330;28;2726;-52
2022/10/21 03:44:04;;;;;;;;;;;;;;;;;;1047409;28;3206;-53
2022/10/21 03:44:34;;;;;;;;;;;;;;;;;;1048442;28;2795;-56
2022/10/21 03:45:05;;;;;;;;;;;;;;;;;;1049486;28;2872;-56
2022/10/21 03:45:35;;;;;;;;;;;;;;;;;;1047107;28;2209;-55
2022/10/21 03:46:05;;;;;;;;;;;;;;;;;;1048765;28;2758;-58
2022/10/21 03:46:35;;;;;;;;;;;;;;;;;;1047859;28;2621;-52
2022/10/21 03:47:06;;;;;;;;;;;;;;;;;;1049451;28;2587;-51
2022/10/21 03:47:36;;;;;;;;;;;;;;;;;;1051070;28;2590;-57
2022/10/21 03:48:07;;;;;;;;;;;;;;;;;;1049206;28;2184;-51
2022/10/21 03:48:37;;;;;;;;;;;;;;;;;;1048694;28;2863;-56
2022/10/21 03:49:08;;;;;;;;;;;;;;;;;;1048107;28;2259;-57
2022/10/21 03:49:39;;;;;;;;;;;;;;;;;;1048392;28;2541;-55
2022/10/21 03:50:09;;;;;;;;;;;;;;;;;;1049416;28;2639;-55
2022/10/21 03:50:40;;;;;;;;;;;;;;;;;;1049522;28;2198;-55